createdAt,value
2023-02-11T00:00:15.655Z,49.24
2023-02-11T00:02:42.553Z,49.23
2023-02-11T00:05:09.565Z,49.19
2023-02-11T00:07:36.308Z,49.25
2023-02-11T00:10:04.361Z,49.31
2023-02-11T00:12:30.907Z,49.39
2023-02-11T00:14:57.529Z,49.15
2023-02-11T00:17:24.138Z,49.33
2023-02-11T00:19:53.787Z,49.28
2023-02-11T00:22:20.704Z,49.39
2023-02-11T00:24:47.564Z,49.37
2023-02-11T00:27:14.142Z,49.14
2023-02-11T00:29:40.691Z,49.32
2023-02-11T00:32:08.872Z,49.00
2023-02-11T00:34:36.882Z,49.14
2023-02-11T00:37:03.598Z,49.29
2023-02-11T00:39:30.339Z,49.22
2023-02-11T00:41:57.581Z,49.37
2023-02-11T00:44:24.536Z,49.38
2023-02-11T00:46:51.056Z,49.21
2023-02-11T00:49:17.685Z,49.25
2023-02-11T00:51:44.253Z,49.37
2023-02-11T00:54:10.888Z,49.30
2023-02-11T00:56:37.490Z,49.20
2023-02-11T00:59:04.063Z,49.26
2023-02-11T01:01:30.658Z,49.48
2023-02-11T01:03:57.206Z,49.34
2023-02-11T01:06:23.871Z,49.30
2023-02-11T01:08:50.450Z,49.42
2023-02-11T01:11:19.449Z,49.31
2023-02-11T01:13:47.804Z,49.47
2023-02-11T01:16:14.935Z,49.31
2023-02-11T01:18:44.278Z,49.47
2023-02-11T01:21:11.397Z,49.37
2023-02-11T01:23:37.981Z,49.41
2023-02-11T01:26:05.068Z,49.42
2023-02-11T01:28:32.204Z,49.46
2023-02-11T01:31:00.533Z,49.57
2023-02-11T01:33:27.113Z,49.61
2023-02-11T01:35:53.834Z,49.62
2023-02-11T01:38:23.458Z,49.72
2023-02-11T01:40:53.533Z,49.56
2023-02-11T01:43:20.438Z,49.64
2023-02-11T01:45:49.914Z,49.80
2023-02-11T01:48:38.731Z,49.79
2023-02-11T01:51:43.552Z,49.69
2023-02-11T01:54:32.721Z,49.69
2023-02-11T01:57:19.592Z,49.67
2023-02-11T01:59:49.308Z,49.63
2023-02-11T02:02:20.010Z,49.64
2023-02-11T02:04:58.209Z,49.71
2023-02-11T02:07:53.836Z,49.84
2023-02-11T02:10:24.395Z,49.81
2023-02-11T02:12:51.001Z,49.75
2023-02-11T02:15:33.914Z,49.77
2023-02-11T02:18:36.710Z,49.92
2023-02-11T02:21:40.611Z,50.00
2023-02-11T02:24:14.232Z,49.76
2023-02-11T02:27:18.184Z,49.87
2023-02-11T02:30:08.815Z,50.02
2023-02-11T02:32:43.224Z,49.86
2023-02-11T02:35:26.313Z,49.84
2023-02-11T02:38:05.627Z,49.91
2023-02-11T02:40:40.213Z,49.89
2023-02-11T02:43:09.000Z,49.75
2023-02-11T02:45:35.666Z,49.68
2023-02-11T02:48:02.432Z,49.77
2023-02-11T02:50:33.694Z,49.85
2023-02-11T02:53:27.917Z,49.67
2023-02-11T02:56:12.885Z,49.67
2023-02-11T02:58:52.390Z,49.75
2023-02-11T03:01:39.265Z,49.67
2023-02-11T03:04:24.334Z,49.85
2023-02-11T03:06:50.805Z,49.72
2023-02-11T03:09:30.173Z,49.72
2023-02-11T03:11:56.899Z,49.58
2023-02-11T03:14:27.147Z,49.78
2023-02-11T03:16:57.346Z,49.75
2023-02-11T03:19:29.729Z,49.69
2023-02-11T03:21:57.395Z,49.69
2023-02-11T03:24:34.552Z,49.72
2023-02-11T03:27:16.718Z,49.73
2023-02-11T03:30:00.800Z,49.81
2023-02-11T03:32:30.829Z,49.61
2023-02-11T03:35:07.259Z,49.63
2023-02-11T03:37:40.976Z,49.44
2023-02-11T03:40:32.562Z,49.81
2023-02-11T03:43:05.662Z,49.89
2023-02-11T03:45:32.848Z,49.78
2023-02-11T03:48:09.354Z,49.88
2023-02-11T03:50:37.375Z,49.89
2023-02-11T03:53:05.224Z,50.10
2023-02-11T03:55:36.671Z,49.92
2023-02-11T03:58:03.368Z,49.89
2023-02-11T04:00:36.598Z,49.99
2023-02-11T04:03:04.112Z,49.84
2023-02-11T04:05:30.729Z,50.06
2023-02-11T04:07:57.337Z,49.89
2023-02-11T04:10:23.925Z,49.98
2023-02-11T04:12:50.525Z,50.00
2023-02-11T04:15:17.073Z,50.19
2023-02-11T04:17:43.753Z,50.10
2023-02-11T04:20:11.613Z,50.00
2023-02-11T04:22:38.626Z,50.12
2023-02-11T04:25:06.412Z,49.96
2023-02-11T04:27:33.025Z,49.99
2023-02-11T04:29:59.596Z,50.20
2023-02-11T04:32:26.131Z,50.04
2023-02-11T04:34:53.043Z,50.02
2023-02-11T04:37:19.786Z,50.24
2023-02-11T04:39:46.331Z,50.18
2023-02-11T04:42:12.999Z,50.15
2023-02-11T04:44:39.568Z,50.05
2023-02-11T04:47:06.092Z,50.01
2023-02-11T04:49:32.642Z,50.12
2023-02-11T04:51:59.242Z,50.18
2023-02-11T04:54:25.759Z,50.05
2023-02-11T04:56:52.284Z,50.16
2023-02-11T04:59:18.859Z,50.19
2023-02-11T05:01:45.437Z,50.18
2023-02-11T05:04:11.976Z,50.17
2023-02-11T05:06:39.875Z,50.09
2023-02-11T05:09:06.733Z,50.18
2023-02-11T05:11:33.657Z,50.25
2023-02-11T05:14:00.252Z,50.35
2023-02-11T05:16:26.980Z,50.16
2023-02-11T05:18:55.709Z,50.31
2023-02-11T05:21:22.632Z,50.34
2023-02-11T05:23:49.186Z,50.14
2023-02-11T05:26:15.832Z,50.30
2023-02-11T05:28:43.351Z,50.48
2023-02-11T05:31:10.767Z,50.28
2023-02-11T05:33:37.620Z,50.36
2023-02-11T05:36:08.260Z,50.27
2023-02-11T05:38:35.347Z,50.19
2023-02-11T05:41:03.132Z,50.29
2023-02-11T05:43:29.978Z,50.39
2023-02-11T05:45:57.196Z,50.18
2023-02-11T05:48:23.876Z,50.37
2023-02-11T05:50:50.450Z,50.41
2023-02-11T05:53:17.062Z,50.41
2023-02-11T05:55:44.069Z,50.28
2023-02-11T05:58:10.907Z,50.32
2023-02-11T06:00:37.900Z,50.24
2023-02-11T06:03:04.672Z,50.49
2023-02-11T06:05:31.939Z,50.44
2023-02-11T06:07:58.722Z,50.27
2023-02-11T06:10:25.815Z,50.46
2023-02-11T06:12:52.525Z,50.47
2023-02-11T06:15:19.111Z,50.48
2023-02-11T06:17:45.627Z,50.38
2023-02-11T06:20:12.493Z,50.42
2023-02-11T06:22:39.170Z,50.51
2023-02-11T06:25:06.075Z,50.42
2023-02-11T06:27:32.660Z,50.62
2023-02-11T06:29:59.211Z,50.25
2023-02-11T06:32:45.464Z,50.65
2023-02-11T06:35:12.706Z,50.67
2023-02-11T06:37:40.139Z,50.77
2023-02-11T06:40:07.416Z,50.70
2023-02-11T06:42:36.095Z,50.71
2023-02-11T06:45:02.781Z,50.52
2023-02-11T06:47:29.338Z,50.53
2023-02-11T06:49:55.875Z,50.39
2023-02-11T06:52:22.485Z,50.64
2023-02-11T06:54:48.987Z,50.48
2023-02-11T06:57:15.495Z,50.50
2023-02-11T06:59:42.183Z,50.62
2023-02-11T07:02:11.712Z,50.72
2023-02-11T07:04:38.308Z,50.37
2023-02-11T07:07:04.865Z,50.76
2023-02-11T07:09:31.403Z,50.57
2023-02-11T07:11:57.940Z,50.81
2023-02-11T07:14:24.723Z,50.70
2023-02-11T07:16:51.297Z,50.70
2023-02-11T07:19:17.853Z,50.75
2023-02-11T07:21:44.388Z,50.74
2023-02-11T07:24:11.517Z,50.48
2023-02-11T07:26:38.825Z,50.61
2023-02-11T07:29:05.542Z,50.45
2023-02-11T07:31:33.105Z,50.36
2023-02-11T07:34:01.914Z,50.26
2023-02-11T07:36:31.852Z,50.37
2023-02-11T07:38:58.591Z,50.16
2023-02-11T07:41:27.634Z,50.18
2023-02-11T07:43:54.752Z,50.54
2023-02-11T07:46:27.177Z,50.47
2023-02-11T07:48:54.157Z,50.52
2023-02-11T07:51:24.492Z,50.59
2023-02-11T07:53:52.134Z,50.76
2023-02-11T07:56:20.102Z,50.67
2023-02-11T07:58:47.130Z,50.87
2023-02-11T08:01:19.009Z,50.72
2023-02-11T08:03:45.842Z,51.14
2023-02-11T08:06:15.054Z,51.24
2023-02-11T08:08:42.518Z,51.54
2023-02-11T08:11:12.164Z,51.78
2023-02-11T08:13:38.828Z,51.83
2023-02-11T08:16:06.296Z,51.72
2023-02-11T08:18:33.588Z,51.99
2023-02-11T08:21:07.650Z,51.59
2023-02-11T08:23:38.092Z,52.06
2023-02-11T08:26:13.544Z,52.01
2023-02-11T08:28:42.298Z,51.93
2023-02-11T08:31:11.483Z,51.54
2023-02-11T08:33:40.327Z,51.72
2023-02-11T08:36:12.469Z,51.91
2023-02-11T08:38:39.092Z,51.62
2023-02-11T08:41:06.178Z,51.43
2023-02-11T08:43:33.454Z,51.37
2023-02-11T08:46:02.190Z,51.46
2023-02-11T08:48:29.809Z,51.58
2023-02-11T08:50:56.928Z,51.47
2023-02-11T08:53:23.663Z,51.44
2023-02-11T08:55:55.361Z,51.51
2023-02-11T08:58:22.349Z,51.32
2023-02-11T09:00:50.585Z,51.27
2023-02-11T09:03:18.050Z,51.37
2023-02-11T09:05:50.154Z,51.41
2023-02-11T09:08:17.111Z,51.23
2023-02-11T09:10:43.688Z,51.29
2023-02-11T09:13:10.488Z,51.20
2023-02-11T09:15:37.281Z,51.23
2023-02-11T09:18:04.393Z,51.25
2023-02-11T09:20:31.391Z,51.33
2023-02-11T09:22:59.195Z,51.32
2023-02-11T09:25:25.871Z,51.21
2023-02-11T09:27:53.782Z,51.36
2023-02-11T09:30:20.750Z,51.29
2023-02-11T09:32:47.392Z,51.17
2023-02-11T09:35:14.054Z,51.28
2023-02-11T09:37:40.629Z,51.17
2023-02-11T09:40:07.696Z,51.33
2023-02-11T09:42:44.278Z,51.43
2023-02-11T09:45:20.543Z,51.89
2023-02-11T09:47:52.812Z,52.06
2023-02-11T09:50:27.931Z,52.28
2023-02-11T09:53:22.780Z,52.27
2023-02-11T09:55:55.760Z,52.08
2023-02-11T09:58:31.982Z,52.08
2023-02-11T10:01:04.691Z,52.12
2023-02-11T10:03:46.504Z,52.49
2023-02-11T10:06:34.344Z,52.43
2023-02-11T10:09:19.687Z,52.49
2023-02-11T10:12:11.207Z,52.20
2023-02-11T10:15:11.666Z,52.42
2023-02-11T10:18:07.622Z,52.06
2023-02-11T10:20:42.735Z,52.62
2023-02-11T10:23:22.472Z,52.28
2023-02-11T10:25:52.908Z,52.04
2023-02-11T10:28:22.160Z,52.07
2023-02-11T10:31:02.636Z,52.00
2023-02-11T10:33:37.033Z,52.11
2023-02-11T10:36:06.916Z,52.41
2023-02-11T10:38:33.947Z,52.09
2023-02-11T10:41:00.578Z,52.10
2023-02-11T10:43:29.052Z,52.24
2023-02-11T10:45:57.343Z,52.26
2023-02-11T10:48:44.102Z,52.72
2023-02-11T10:51:12.308Z,52.25
2023-02-11T10:53:40.699Z,52.48
2023-02-11T10:56:10.601Z,52.26
2023-02-11T10:58:45.906Z,52.48
2023-02-11T11:01:23.879Z,51.96
2023-02-11T11:03:52.903Z,52.01
2023-02-11T11:06:31.912Z,52.08
2023-02-11T11:08:58.996Z,51.87
2023-02-11T11:11:27.320Z,52.23
2023-02-11T11:13:53.819Z,51.99
2023-02-11T11:16:34.006Z,52.12
2023-02-11T11:19:06.548Z,52.04
2023-02-11T11:21:44.002Z,52.40
2023-02-11T11:24:27.920Z,52.09
2023-02-11T11:26:57.344Z,51.77
2023-02-11T11:29:32.799Z,52.08
2023-02-11T11:32:04.688Z,52.08
2023-02-11T11:34:38.263Z,52.27
2023-02-11T11:37:18.729Z,52.47
2023-02-11T11:39:55.811Z,52.53
2023-02-11T11:42:33.576Z,52.65
2023-02-11T11:45:19.585Z,52.41
2023-02-11T11:48:01.487Z,52.87
2023-02-11T11:50:36.853Z,52.69
2023-02-11T11:53:31.412Z,52.96
2023-02-11T11:56:05.481Z,52.75
2023-02-11T11:58:33.162Z,52.76
2023-02-11T12:01:06.482Z,53.01
2023-02-11T12:03:42.054Z,52.63
2023-02-11T12:06:20.940Z,52.92
2023-02-11T12:09:17.397Z,53.08
2023-02-11T12:11:56.223Z,52.84
2023-02-11T12:14:50.704Z,53.07
2023-02-11T12:17:37.625Z,52.85
2023-02-11T12:20:24.735Z,52.98
2023-02-11T12:22:57.299Z,53.31
2023-02-11T12:25:59.853Z,53.07
2023-02-11T12:28:29.435Z,52.53
2023-02-11T12:31:13.203Z,52.97
2023-02-11T12:33:58.901Z,53.42
2023-02-11T12:36:41.970Z,53.50
2023-02-11T12:39:16.218Z,53.21
2023-02-11T12:43:02.442Z,53.71
2023-02-11T12:45:31.696Z,53.29
2023-02-11T12:48:23.387Z,53.73
2023-02-11T12:51:35.244Z,53.61
2023-02-11T12:54:11.016Z,53.55
2023-02-11T12:56:45.595Z,53.47
2023-02-11T12:59:20.760Z,53.80
2023-02-11T13:01:50.858Z,53.36
2023-02-11T13:04:26.904Z,53.33
2023-02-11T13:07:02.348Z,53.35
2023-02-11T13:09:35.864Z,53.32
2023-02-11T13:12:24.707Z,53.25
2023-02-11T13:14:56.793Z,53.29
2023-02-11T13:17:34.848Z,53.15
2023-02-11T13:20:15.104Z,52.96
2023-02-11T13:22:57.222Z,53.39
2023-02-11T13:25:33.192Z,53.33
2023-02-11T13:28:27.651Z,53.28
2023-02-11T13:31:02.713Z,53.05
2023-02-11T13:33:45.828Z,53.31
2023-02-11T13:36:14.613Z,52.84
2023-02-11T13:38:41.761Z,52.72
2023-02-11T13:41:27.728Z,53.20
2023-02-11T13:44:08.364Z,53.24
2023-02-11T13:46:53.877Z,53.18
2023-02-11T13:49:25.284Z,53.06
2023-02-11T13:51:53.560Z,53.11
2023-02-11T13:54:24.979Z,53.19
2023-02-11T13:57:16.343Z,53.44
2023-02-11T13:59:42.795Z,53.06
2023-02-11T14:02:45.277Z,53.36
2023-02-11T14:05:45.998Z,53.20
2023-02-11T14:08:31.254Z,53.01
2023-02-11T14:11:00.601Z,53.17
2023-02-11T14:13:50.046Z,53.11
2023-02-11T14:16:28.309Z,53.16
2023-02-11T14:19:03.341Z,52.89
2023-02-11T14:21:36.648Z,53.39
2023-02-11T14:24:04.915Z,53.01
2023-02-11T14:26:53.196Z,53.26
2023-02-11T14:29:31.502Z,53.35
2023-02-11T14:32:13.439Z,53.22
2023-02-11T14:35:08.140Z,53.17
2023-02-11T14:37:52.858Z,53.42
2023-02-11T14:40:25.881Z,53.21
2023-02-11T14:42:54.388Z,52.93
2023-02-11T14:45:25.637Z,53.18
2023-02-11T14:48:05.579Z,53.41
2023-02-11T14:50:40.420Z,53.30
2023-02-11T14:53:07.986Z,53.36
2023-02-11T14:55:38.043Z,53.25
2023-02-11T14:58:16.740Z,53.17
2023-02-11T15:00:55.540Z,53.60
2023-02-11T15:03:31.158Z,53.61
2023-02-11T15:06:16.458Z,53.45
2023-02-11T15:08:56.556Z,53.45
2023-02-11T15:11:25.371Z,53.37
2023-02-11T15:13:55.372Z,53.22
2023-02-11T15:16:28.585Z,53.53
2023-02-11T15:19:00.606Z,53.40
2023-02-11T15:21:30.484Z,53.37
2023-02-11T15:24:06.038Z,53.54
2023-02-11T15:26:33.478Z,53.22
2023-02-11T15:29:00.790Z,53.28
2023-02-11T15:31:28.283Z,53.31
2023-02-11T15:33:55.426Z,53.22
2023-02-11T15:36:28.676Z,53.29
2023-02-11T15:39:47.585Z,53.75
2023-02-11T15:42:28.208Z,53.42
2023-02-11T15:45:16.570Z,53.38
2023-02-11T15:47:49.506Z,53.21
2023-02-11T15:50:25.783Z,53.23
2023-02-11T15:52:53.664Z,53.04
2023-02-11T15:55:21.107Z,53.30
2023-02-11T15:57:57.583Z,53.38
2023-02-11T16:00:30.199Z,53.11
2023-02-11T16:02:56.784Z,53.18
2023-02-11T16:05:35.817Z,53.56
2023-02-11T16:08:22.333Z,53.55
2023-02-11T16:11:24.705Z,53.33
2023-02-11T16:13:51.260Z,53.19
2023-02-11T16:19:04.606Z,54.10
2023-02-11T16:21:39.262Z,54.18
2023-02-11T16:24:08.019Z,54.35
2023-02-11T16:26:43.161Z,54.26
2023-02-11T16:29:12.554Z,53.98
2023-02-11T16:31:42.610Z,54.56
2023-02-11T16:34:28.433Z,54.55
2023-02-11T16:36:55.042Z,54.50
2023-02-11T16:39:22.509Z,54.16
2023-02-11T16:41:52.701Z,54.35
2023-02-11T16:44:19.930Z,54.50
2023-02-11T16:46:46.561Z,54.34
2023-02-11T16:49:31.353Z,54.71
2023-02-11T16:52:05.523Z,54.73
2023-02-11T16:54:32.572Z,54.42
2023-02-11T16:56:59.268Z,54.54
2023-02-11T16:59:26.024Z,54.75
2023-02-11T17:01:53.803Z,54.64
2023-02-11T17:04:25.460Z,55.06
2023-02-11T17:06:52.231Z,54.68
2023-02-11T17:09:22.073Z,54.57
2023-02-11T17:11:49.416Z,54.95
2023-02-11T17:14:16.321Z,54.96
2023-02-11T17:16:43.873Z,54.82
2023-02-11T17:19:13.240Z,55.21
2023-02-11T17:21:44.425Z,55.33
2023-02-11T17:24:11.643Z,55.07
2023-02-11T17:26:39.361Z,54.77
2023-02-11T17:29:07.747Z,54.92
2023-02-11T17:31:35.201Z,54.92
2023-02-11T17:34:02.004Z,55.27
2023-02-11T17:36:31.315Z,55.38
2023-02-11T17:38:58.880Z,55.47
2023-02-11T17:41:25.747Z,55.45
2023-02-11T17:43:52.582Z,55.38
2023-02-11T17:46:19.301Z,55.62
2023-02-11T17:48:46.074Z,55.58
2023-02-11T17:51:31.552Z,55.98
2023-02-11T17:54:01.295Z,55.55
2023-02-11T17:56:29.922Z,55.54
2023-02-11T17:58:56.484Z,55.60
2023-02-11T18:01:23.254Z,55.70
2023-02-11T18:03:49.862Z,55.33
2023-02-11T18:06:16.537Z,55.35
2023-02-11T18:08:43.151Z,55.49
2023-02-11T18:11:12.252Z,55.50
2023-02-11T18:13:38.853Z,55.46
2023-02-11T18:16:08.637Z,55.11
2023-02-11T18:18:35.688Z,55.07
2023-02-11T18:21:08.974Z,55.22
2023-02-11T18:23:35.956Z,55.49
2023-02-11T18:26:03.080Z,55.19
2023-02-11T18:28:29.687Z,54.96
2023-02-11T18:31:00.457Z,55.26
2023-02-11T18:33:29.713Z,55.33
2023-02-11T18:35:56.493Z,55.44
2023-02-11T18:38:23.937Z,55.34
2023-02-11T18:40:50.725Z,55.29
2023-02-11T18:43:18.294Z,55.34
2023-02-11T18:45:49.525Z,55.49
2023-02-11T18:48:17.848Z,55.28
2023-02-11T18:50:46.345Z,55.54
2023-02-11T18:53:15.920Z,55.49
2023-02-11T18:55:44.847Z,55.40
2023-02-11T18:58:11.941Z,55.44
2023-02-11T19:00:41.199Z,55.14
2023-02-11T19:03:07.820Z,55.14
2023-02-11T19:06:00.482Z,55.73
2023-02-11T19:08:27.023Z,55.21
2023-02-11T19:10:53.592Z,55.25
2023-02-11T19:13:20.149Z,55.20
2023-02-11T19:15:46.841Z,55.12
2023-02-11T19:18:15.618Z,55.13
2023-02-11T19:20:43.667Z,55.31
2023-02-11T19:23:11.027Z,54.96
2023-02-11T19:25:38.170Z,55.16
2023-02-11T19:28:04.794Z,55.20
2023-02-11T19:30:31.520Z,54.91
2023-02-11T19:32:58.394Z,54.83
2023-02-11T19:35:25.445Z,55.32
2023-02-11T19:37:52.047Z,55.07
2023-02-11T19:40:21.329Z,55.20
2023-02-11T19:42:48.292Z,55.31
2023-02-11T19:45:14.977Z,55.19
2023-02-11T19:47:41.497Z,54.97
2023-02-11T19:50:08.964Z,55.23
2023-02-11T19:52:38.352Z,55.32
2023-02-11T19:55:05.181Z,54.89
2023-02-11T19:57:31.796Z,55.26
2023-02-11T19:59:58.330Z,55.01
2023-02-11T20:02:24.991Z,55.09
2023-02-11T20:04:51.690Z,55.17
2023-02-11T20:07:18.228Z,54.94
2023-02-11T20:09:44.860Z,55.17
2023-02-11T20:12:12.096Z,55.03
2023-02-11T20:14:38.788Z,54.91
2023-02-11T20:17:05.381Z,54.84
2023-02-11T20:19:32.065Z,54.98
2023-02-11T20:21:58.649Z,55.04
2023-02-11T20:24:25.989Z,55.45
2023-02-11T20:26:55.761Z,55.15
2023-02-11T20:29:23.714Z,55.20
2023-02-11T20:31:50.574Z,55.01
2023-02-11T20:34:17.863Z,55.09
2023-02-11T20:36:51.529Z,55.18
2023-02-11T20:39:18.876Z,55.18
2023-02-11T20:41:46.141Z,55.18
2023-02-11T20:44:13.679Z,55.06
2023-02-11T20:46:42.935Z,55.13
2023-02-11T20:49:14.389Z,55.09
2023-02-11T20:51:41.521Z,55.27
2023-02-11T20:54:12.471Z,54.97
2023-02-11T20:56:39.241Z,55.39
2023-02-11T20:59:06.580Z,55.11
2023-02-11T21:01:36.390Z,54.78
2023-02-11T21:04:04.551Z,54.91
2023-02-11T21:06:34.202Z,55.28
2023-02-11T21:09:01.014Z,55.06
2023-02-11T21:11:27.651Z,54.90
2023-02-11T21:13:54.235Z,54.88
2023-02-11T21:16:21.301Z,54.58
2023-02-11T21:18:49.109Z,54.93
2023-02-11T21:21:17.400Z,55.13
2023-02-11T21:23:44.028Z,54.98
2023-02-11T21:26:10.831Z,54.64
2023-02-11T21:28:40.530Z,54.88
2023-02-11T21:31:08.333Z,54.57
2023-02-11T21:33:35.140Z,55.00
2023-02-11T21:36:04.606Z,55.00
2023-02-11T21:38:31.183Z,54.79
2023-02-11T21:41:06.073Z,55.18
2023-02-11T21:43:33.568Z,54.71
2023-02-11T21:46:00.534Z,54.55
2023-02-11T21:48:27.129Z,54.93
2023-02-11T21:50:53.684Z,54.69
2023-02-11T21:53:20.588Z,54.99
2023-02-11T21:55:47.200Z,54.65
2023-02-11T21:58:14.384Z,54.87
2023-02-11T22:00:41.064Z,54.98
2023-02-11T22:03:07.656Z,55.07
2023-02-11T22:05:34.362Z,54.82
2023-02-11T22:08:00.952Z,54.46
2023-02-11T22:10:27.535Z,55.08
2023-02-11T22:12:54.149Z,54.96
2023-02-11T22:15:20.798Z,54.62
2023-02-11T22:17:47.375Z,54.66
2023-02-11T22:20:13.997Z,54.76
2023-02-11T22:22:40.595Z,54.52
2023-02-11T22:25:07.571Z,54.82
2023-02-11T22:27:34.158Z,54.63
2023-02-11T22:30:00.881Z,54.71
2023-02-11T22:32:27.457Z,54.61
2023-02-11T22:34:54.050Z,54.59
2023-02-11T22:37:20.733Z,54.37
2023-02-11T22:39:47.412Z,54.71
2023-02-11T22:42:13.999Z,54.95
2023-02-11T22:44:40.719Z,54.49
2023-02-11T22:47:07.292Z,54.53
2023-02-11T22:49:34.422Z,54.47
2023-02-11T22:52:01.255Z,54.67
2023-02-11T22:54:28.088Z,54.43
2023-02-11T22:56:54.666Z,54.80
2023-02-11T22:59:21.711Z,55.01
2023-02-11T23:01:48.414Z,54.83
2023-02-11T23:04:17.004Z,55.11
2023-02-11T23:06:43.729Z,55.22
2023-02-11T23:09:12.401Z,55.18
2023-02-11T23:11:39.731Z,55.07
2023-02-11T23:14:08.583Z,55.39
2023-02-11T23:16:35.264Z,55.43
2023-02-11T23:19:05.601Z,55.58
2023-02-11T23:21:34.434Z,55.49
2023-02-11T23:24:04.444Z,55.51
2023-02-11T23:26:31.128Z,55.40
2023-02-11T23:28:59.101Z,55.19
2023-02-11T23:31:33.969Z,55.52
2023-02-11T23:34:01.354Z,55.05
2023-02-11T23:36:28.312Z,54.68
2023-02-11T23:38:54.868Z,54.86
2023-02-11T23:41:21.815Z,54.95
2023-02-11T23:43:53.052Z,55.16
2023-02-11T23:46:21.831Z,54.79
2023-02-11T23:48:49.585Z,54.56
2023-02-11T23:51:16.183Z,54.44
2023-02-11T23:53:43.197Z,54.74
2023-02-11T23:56:13.578Z,54.62
2023-02-11T23:58:40.269Z,54.81
